createdAt,value
2023-04-07T00:07:24.298Z,100897.44
2023-04-07T00:17:25.865Z,100900.91
2023-04-07T00:27:27.374Z,100907.81
2023-04-07T00:37:28.887Z,100890.69
2023-04-07T00:47:30.381Z,100896.72
2023-04-07T00:57:31.781Z,100880.38
2023-04-07T01:07:39.894Z,100882.94
2023-04-07T01:17:48.403Z,100883.03
2023-04-07T01:27:52.994Z,100874.44
2023-04-07T01:37:56.023Z,100888.28
2023-04-07T01:47:58.075Z,100881.47
2023-04-07T01:58:04.557Z,100882.47
2023-04-07T02:08:08.716Z,100877.28
2023-04-07T02:18:12.756Z,100873.03
2023-04-07T02:28:14.275Z,100876.50
2023-04-07T02:38:15.942Z,100875.66
2023-04-07T02:48:17.451Z,100885.09
2023-04-07T02:58:18.930Z,100890.31
2023-04-07T03:08:20.570Z,100887.78
2023-04-07T03:18:21.978Z,100893.75
2023-04-07T03:28:23.563Z,100897.22
2023-04-07T03:38:26.234Z,100899.78
2023-04-07T03:48:29.281Z,100913.47
2023-04-07T03:58:30.880Z,100906.63
2023-04-07T04:08:32.371Z,100914.31
2023-04-07T04:18:33.746Z,100927.22
2023-04-07T04:28:35.250Z,100928.09
2023-04-07T04:38:36.834Z,100937.53
2023-04-07T04:48:38.313Z,100947.84
2023-04-07T04:58:46.797Z,100953.81
2023-04-07T05:08:48.317Z,100958.97
2023-04-07T05:18:49.771Z,100973.53
2023-04-07T05:28:51.129Z,100983.84
2023-04-07T05:38:52.630Z,100985.53
2023-04-07T05:48:54.022Z,100986.34
2023-04-07T05:58:56.201Z,101001.81
2023-04-07T06:08:57.748Z,101010.44
2023-04-07T06:18:59.263Z,101022.50
2023-04-07T06:29:00.835Z,101019.88
2023-04-07T06:39:02.291Z,101026.75
2023-04-07T06:49:04.015Z,101036.25
2023-04-07T06:59:05.518Z,101042.38
2023-04-07T07:09:06.859Z,101049.34
2023-04-07T07:19:08.245Z,101053.69
2023-04-07T07:29:09.637Z,101064.94
2023-04-07T07:39:11.253Z,101073.50
2023-04-07T07:49:12.761Z,101086.50
2023-04-07T07:59:15.190Z,101095.16
2023-04-07T08:09:19.018Z,101093.53
2023-04-07T08:19:20.604Z,101102.16
2023-04-07T08:29:22.069Z,101113.38
2023-04-07T08:39:25.413Z,101124.56
2023-04-07T08:49:29.676Z,101140.06
2023-04-07T08:59:33.648Z,101146.00
2023-04-07T09:09:35.625Z,101152.16
2023-04-07T09:19:37.264Z,101156.47
2023-04-07T09:29:40.342Z,101169.28
2023-04-07T09:39:50.599Z,101165.91
2023-04-07T09:49:54.182Z,101172.78
2023-04-07T09:59:57.226Z,101177.91
2023-04-07T10:09:58.665Z,101172.88
2023-04-07T10:20:01.658Z,101180.63
2023-04-07T10:30:05.217Z,101185.03
2023-04-07T10:40:18.981Z,101195.47
2023-04-07T10:50:22.855Z,101198.91
2023-04-07T11:00:24.485Z,101211.00
2023-04-07T11:10:26.297Z,101213.69
2023-04-07T11:20:47.347Z,101227.47
2023-04-07T11:30:53.927Z,101216.38
2023-04-07T11:40:57.183Z,101222.50
2023-04-07T11:50:59.918Z,101226.03
2023-04-07T12:01:06.680Z,101241.66
2023-04-07T12:11:09.350Z,101249.44
2023-04-07T12:21:10.741Z,101261.47
2023-04-07T12:31:12.321Z,101273.56
2023-04-07T12:41:13.768Z,101265.00
2023-04-07T12:51:15.346Z,101279.72
2023-04-07T13:01:17.132Z,101283.22
2023-04-07T13:11:18.790Z,101288.44
2023-04-07T13:21:43.758Z,101287.56
2023-04-07T13:31:41.616Z,101293.69
2023-04-07T13:41:43.103Z,101287.69
2023-04-07T13:51:44.474Z,101293.78
2023-04-07T14:01:45.984Z,101309.22
2023-04-07T14:11:48.400Z,101327.13
2023-04-07T14:21:53.513Z,101327.72
2023-04-07T14:31:54.899Z,101333.81
2023-04-07T14:41:56.472Z,101336.34
2023-04-07T14:51:58.884Z,101341.38
2023-04-07T15:02:00.398Z,101338.75
2023-04-07T15:12:02.221Z,101343.97
2023-04-07T15:22:03.941Z,101352.50
2023-04-07T15:32:05.658Z,101353.47
2023-04-07T15:42:12.550Z,101356.84
2023-04-07T15:52:14.018Z,101372.41
2023-04-07T16:02:15.687Z,101375.72
2023-04-07T16:12:18.438Z,101384.09
2023-04-07T16:22:19.779Z,101386.72
2023-04-07T16:32:21.234Z,101384.16
2023-04-07T16:42:25.533Z,101391.91
2023-04-07T16:52:27.014Z,101397.06
2023-04-07T17:02:28.617Z,101403.94
2023-04-07T17:12:30.250Z,101409.94
2023-04-07T17:22:31.741Z,101412.50
2023-04-07T17:32:33.138Z,101428.06
2023-04-07T17:42:34.636Z,101446.06
2023-04-07T17:52:36.106Z,101462.31
2023-04-07T18:02:40.127Z,101479.41
2023-04-07T18:12:41.835Z,101481.13
2023-04-07T18:22:43.964Z,101482.00
2023-04-07T18:32:46.574Z,101507.69
2023-04-07T18:42:48.144Z,101501.69
2023-04-07T18:52:49.732Z,101512.94
2023-04-07T19:02:51.476Z,101533.59
2023-04-07T19:12:52.958Z,101546.44
2023-04-07T19:22:54.356Z,101561.94
2023-04-07T19:32:56.562Z,101564.53
2023-04-07T19:42:58.125Z,101573.97
2023-04-07T19:52:59.515Z,101586.72
2023-04-07T20:03:01.107Z,101599.50
2023-04-07T20:13:03.779Z,101592.59
2023-04-07T20:23:06.538Z,101601.97
2023-04-07T20:33:08.180Z,101609.00
2023-04-07T20:43:10.028Z,101614.78
2023-04-07T20:53:11.429Z,101626.81
2023-04-07T21:03:13.581Z,101630.22
2023-04-07T21:13:15.702Z,101631.78
2023-04-07T21:23:17.070Z,101637.50
2023-04-07T21:33:18.436Z,101645.28
2023-04-07T21:43:19.816Z,101646.06
2023-04-07T21:53:21.500Z,101636.34
2023-04-07T22:03:23.586Z,101646.31
2023-04-07T22:13:25.380Z,101655.44
2023-04-07T22:23:27.837Z,101659.38
2023-04-07T22:33:29.288Z,101665.41
2023-04-07T22:43:30.881Z,101673.38
2023-04-07T22:53:32.485Z,101679.03
2023-04-07T23:03:33.944Z,101690.66
2023-04-07T23:13:35.487Z,101683.31
2023-04-07T23:23:38.949Z,101690.75
2023-04-07T23:33:40.472Z,101694.03
2023-04-07T23:43:41.847Z,101696.41
2023-04-07T23:53:43.239Z,101703.00
